Sticks, Pennsylvania
Current Conditions -  °F | °C
As of 1:53 AM on Saturday 20 Dec 2014 (Local Time) from KTHV Reporting Station
Broken Clouds Broken Clouds  
Wind Chill: 27°   Ceiling: 3900
Heat Index: 27°   Visibility: 10mi
Dew Point: 20°   Wind: 0mph
Humidity: 75%   Direction: NA
Pressure: 30.21"   Gusts: NA
Location:  39.7603°N, 76.8573°W
Report Text: KTHV 200653Z AUTO 00000KT 10SM BKN039 M03/M07 A3021 RMK AO2 SLP239 T10281067
Loading
Personal Weather Stations






























Interactive Weather Map New forecast layout! Learn more

10-Day Weather Forecast

Advertisements
Track Severe Weather on mobile